sensor_id;sensor_type;location;lat;lon;timestamp;P1;durP1;ratioP1;P2;durP2;ratioP2
67869;SDS011;54673;52.262;6.830;2023-12-20T00:01:17;5.53;;;1.80;;
67869;SDS011;54673;52.262;6.830;2023-12-20T00:03:42;5.53;;;1.63;;
67869;SDS011;54673;52.262;6.830;2023-12-20T00:06:08;10.17;;;1.77;;
67869;SDS011;54673;52.262;6.830;2023-12-20T00:08:34;4.53;;;1.60;;
67869;SDS011;54673;52.262;6.830;2023-12-20T00:11:00;5.40;;;1.87;;
67869;SDS011;54673;52.262;6.830;2023-12-20T00:13:25;6.37;;;1.80;;
67869;SDS011;54673;52.262;6.830;2023-12-20T00:15:51;4.82;;;1.38;;
67869;SDS011;54673;52.262;6.830;2023-12-20T00:18:16;5.50;;;1.30;;
67869;SDS011;54673;52.262;6.830;2023-12-20T00:20:42;3.70;;;1.38;;
67869;SDS011;54673;52.262;6.830;2023-12-20T00:23:08;3.03;;;1.38;;
67869;SDS011;54673;52.262;6.830;2023-12-20T00:25:34;4.60;;;1.40;;
67869;SDS011;54673;52.262;6.830;2023-12-20T00:28:00;5.70;;;1.25;;
67869;SDS011;54673;52.262;6.830;2023-12-20T00:30:26;5.30;;;1.23;;
67869;SDS011;54673;52.262;6.830;2023-12-20T00:32:51;4.60;;;1.40;;
67869;SDS011;54673;52.262;6.830;2023-12-20T00:35:17;5.93;;;1.47;;
67869;SDS011;54673;52.262;6.830;2023-12-20T00:37:43;5.55;;;1.80;;
67869;SDS011;54673;52.262;6.830;2023-12-20T00:40:09;5.80;;;1.67;;
67869;SDS011;54673;52.262;6.830;2023-12-20T00:42:35;7.20;;;1.20;;
67869;SDS011;54673;52.262;6.830;2023-12-20T00:45:03;6.90;;;1.83;;
67869;SDS011;54673;52.262;6.830;2023-12-20T00:47:30;4.20;;;1.60;;
67869;SDS011;54673;52.262;6.830;2023-12-20T00:49:56;4.72;;;1.80;;
67869;SDS011;54673;52.262;6.830;2023-12-20T00:52:22;6.33;;;1.50;;
67869;SDS011;54673;52.262;6.830;2023-12-20T00:54:48;8.25;;;1.90;;
67869;SDS011;54673;52.262;6.830;2023-12-20T00:57:14;5.07;;;1.70;;
67869;SDS011;54673;52.262;6.830;2023-12-20T00:59:40;9.73;;;1.65;;
67869;SDS011;54673;52.262;6.830;2023-12-20T01:02:06;4.07;;;1.30;;
67869;SDS011;54673;52.262;6.830;2023-12-20T01:04:31;6.75;;;1.77;;
67869;SDS011;54673;52.262;6.830;2023-12-20T01:06:57;3.80;;;1.93;;
67869;SDS011;54673;52.262;6.830;2023-12-20T01:09:22;6.57;;;1.83;;
67869;SDS011;54673;52.262;6.830;2023-12-20T01:11:51;10.82;;;2.67;;
67869;SDS011;54673;52.262;6.830;2023-12-20T01:14:17;9.38;;;2.00;;
67869;SDS011;54673;52.262;6.830;2023-12-20T01:16:43;8.77;;;2.30;;
67869;SDS011;54673;52.262;6.830;2023-12-20T01:19:08;5.50;;;2.28;;
67869;SDS011;54673;52.262;6.830;2023-12-20T01:21:34;4.17;;;1.87;;
67869;SDS011;54673;52.262;6.830;2023-12-20T01:24:00;4.87;;;2.13;;
67869;SDS011;54673;52.262;6.830;2023-12-20T01:26:25;6.70;;;2.13;;
67869;SDS011;54673;52.262;6.830;2023-12-20T01:28:51;5.87;;;2.00;;
67869;SDS011;54673;52.262;6.830;2023-12-20T01:31:16;11.13;;;2.30;;
67869;SDS011;54673;52.262;6.830;2023-12-20T01:33:45;8.57;;;1.80;;
67869;SDS011;54673;52.262;6.830;2023-12-20T01:36:11;13.77;;;2.58;;
67869;SDS011;54673;52.262;6.830;2023-12-20T01:38:36;10.53;;;2.50;;
67869;SDS011;54673;52.262;6.830;2023-12-20T01:41:02;8.48;;;2.35;;
67869;SDS011;54673;52.262;6.830;2023-12-20T01:43:29;6.93;;;1.93;;
67869;SDS011;54673;52.262;6.830;2023-12-20T01:45:55;7.50;;;2.30;;
67869;SDS011;54673;52.262;6.830;2023-12-20T01:48:22;8.03;;;1.83;;
67869;SDS011;54673;52.262;6.830;2023-12-20T01:50:49;8.20;;;2.30;;
67869;SDS011;54673;52.262;6.830;2023-12-20T01:53:16;7.40;;;2.15;;
67869;SDS011;54673;52.262;6.830;2023-12-20T01:55:43;8.97;;;2.13;;
67869;SDS011;54673;52.262;6.830;2023-12-20T01:58:09;6.25;;;1.45;;
67869;SDS011;54673;52.262;6.830;2023-12-20T02:00:37;5.20;;;2.00;;
67869;SDS011;54673;52.262;6.830;2023-12-20T02:03:03;9.45;;;1.75;;
67869;SDS011;54673;52.262;6.830;2023-12-20T02:05:29;8.35;;;1.63;;
67869;SDS011;54673;52.262;6.830;2023-12-20T02:07:56;6.27;;;1.93;;
67869;SDS011;54673;52.262;6.830;2023-12-20T02:10:21;7.22;;;1.58;;
67869;SDS011;54673;52.262;6.830;2023-12-20T02:12:48;8.73;;;1.43;;
67869;SDS011;54673;52.262;6.830;2023-12-20T02:15:13;7.30;;;1.88;;
67869;SDS011;54673;52.262;6.830;2023-12-20T02:17:39;4.23;;;1.90;;
67869;SDS011;54673;52.262;6.830;2023-12-20T02:20:05;6.60;;;1.40;;
67869;SDS011;54673;52.262;6.830;2023-12-20T02:22:31;5.18;;;1.10;;
67869;SDS011;54673;52.262;6.830;2023-12-20T02:24:57;5.68;;;1.30;;
67869;SDS011;54673;52.262;6.830;2023-12-20T02:27:22;10.10;;;1.30;;
67869;SDS011;54673;52.262;6.830;2023-12-20T02:29:48;3.80;;;1.25;;
67869;SDS011;54673;52.262;6.830;2023-12-20T02:32:15;8.15;;;1.30;;
67869;SDS011;54673;52.262;6.830;2023-12-20T02:34:45;5.70;;;1.23;;
67869;SDS011;54673;52.262;6.830;2023-12-20T02:37:14;4.95;;;1.42;;
67869;SDS011;54673;52.262;6.830;2023-12-20T02:39:40;6.47;;;0.90;;
67869;SDS011;54673;52.262;6.830;2023-12-20T02:42:06;4.90;;;1.13;;
67869;SDS011;54673;52.262;6.830;2023-12-20T02:44:32;7.47;;;1.17;;
67869;SDS011;54673;52.262;6.830;2023-12-20T02:46:57;7.68;;;1.38;;
67869;SDS011;54673;52.262;6.830;2023-12-20T02:49:23;7.43;;;1.20;;
67869;SDS011;54673;52.262;6.830;2023-12-20T02:51:48;10.27;;;1.27;;
67869;SDS011;54673;52.262;6.830;2023-12-20T02:54:14;8.25;;;1.30;;
67869;SDS011;54673;52.262;6.830;2023-12-20T02:56:40;8.80;;;1.20;;
67869;SDS011;54673;52.262;6.830;2023-12-20T02:59:05;8.50;;;1.27;;
67869;SDS011;54673;52.262;6.830;2023-12-20T03:01:33;5.35;;;0.93;;
67869;SDS011;54673;52.262;6.830;2023-12-20T03:03:59;13.35;;;1.55;;
67869;SDS011;54673;52.262;6.830;2023-12-20T03:06:25;9.50;;;1.15;;
67869;SDS011;54673;52.262;6.830;2023-12-20T03:08:50;5.88;;;1.08;;
67869;SDS011;54673;52.262;6.830;2023-12-20T03:11:16;5.20;;;1.20;;
67869;SDS011;54673;52.262;6.830;2023-12-20T03:13:42;8.03;;;1.20;;
67869;SDS011;54673;52.262;6.830;2023-12-20T03:16:08;10.88;;;1.30;;
67869;SDS011;54673;52.262;6.830;2023-12-20T03:18:34;6.53;;;1.40;;
67869;SDS011;54673;52.262;6.830;2023-12-20T03:21:00;6.88;;;1.23;;
67869;SDS011;54673;52.262;6.830;2023-12-20T03:23:25;7.43;;;0.87;;
67869;SDS011;54673;52.262;6.830;2023-12-20T03:25:52;6.25;;;0.68;;
67869;SDS011;54673;52.262;6.830;2023-12-20T03:28:17;9.65;;;1.65;;
67869;SDS011;54673;52.262;6.830;2023-12-20T03:30:44;10.93;;;0.93;;
67869;SDS011;54673;52.262;6.830;2023-12-20T03:33:09;5.97;;;1.25;;
67869;SDS011;54673;52.262;6.830;2023-12-20T03:35:35;5.43;;;0.80;;
67869;SDS011;54673;52.262;6.830;2023-12-20T03:38:01;8.60;;;1.10;;
67869;SDS011;54673;52.262;6.830;2023-12-20T03:40:27;9.10;;;1.27;;
67869;SDS011;54673;52.262;6.830;2023-12-20T03:42:52;10.77;;;1.05;;
67869;SDS011;54673;52.262;6.830;2023-12-20T03:45:18;8.88;;;1.35;;
67869;SDS011;54673;52.262;6.830;2023-12-20T03:47:43;8.67;;;1.20;;
67869;SDS011;54673;52.262;6.830;2023-12-20T03:50:09;9.20;;;1.43;;
67869;SDS011;54673;52.262;6.830;2023-12-20T03:52:34;11.73;;;1.33;;
67869;SDS011;54673;52.262;6.830;2023-12-20T03:55:00;8.93;;;1.20;;
67869;SDS011;54673;52.262;6.830;2023-12-20T03:57:25;11.17;;;1.40;;
67869;SDS011;54673;52.262;6.830;2023-12-20T03:59:51;20.05;;;1.70;;
67869;SDS011;54673;52.262;6.830;2023-12-20T04:02:16;6.23;;;1.07;;
67869;SDS011;54673;52.262;6.830;2023-12-20T04:04:43;10.48;;;1.40;;
67869;SDS011;54673;52.262;6.830;2023-12-20T04:07:08;11.87;;;1.30;;
67869;SDS011;54673;52.262;6.830;2023-12-20T04:09:34;7.53;;;1.33;;
67869;SDS011;54673;52.262;6.830;2023-12-20T04:11:59;7.43;;;1.40;;
67869;SDS011;54673;52.262;6.830;2023-12-20T04:14:26;8.13;;;1.48;;
67869;SDS011;54673;52.262;6.830;2023-12-20T04:16:52;8.82;;;1.10;;
67869;SDS011;54673;52.262;6.830;2023-12-20T04:19:17;8.38;;;0.95;;
67869;SDS011;54673;52.262;6.830;2023-12-20T04:21:43;13.98;;;1.60;;
67869;SDS011;54673;52.262;6.830;2023-12-20T04:24:09;4.97;;;1.57;;
67869;SDS011;54673;52.262;6.830;2023-12-20T04:26:34;8.18;;;1.23;;
67869;SDS011;54673;52.262;6.830;2023-12-20T04:29:00;9.65;;;1.35;;
67869;SDS011;54673;52.262;6.830;2023-12-20T04:31:25;8.67;;;1.00;;
67869;SDS011;54673;52.262;6.830;2023-12-20T04:33:51;8.75;;;1.98;;
67869;SDS011;54673;52.262;6.830;2023-12-20T04:36:16;3.83;;;0.77;;
67869;SDS011;54673;52.262;6.830;2023-12-20T04:38:42;11.20;;;1.30;;
67869;SDS011;54673;52.262;6.830;2023-12-20T04:41:07;6.03;;;1.15;;
67869;SDS011;54673;52.262;6.830;2023-12-20T04:43:33;12.03;;;1.43;;
67869;SDS011;54673;52.262;6.830;2023-12-20T04:45:59;11.77;;;1.50;;
67869;SDS011;54673;52.262;6.830;2023-12-20T04:48:24;9.82;;;1.63;;
67869;SDS011;54673;52.262;6.830;2023-12-20T04:50:50;6.40;;;0.93;;
67869;SDS011;54673;52.262;6.830;2023-12-20T04:53:15;9.20;;;1.47;;
67869;SDS011;54673;52.262;6.830;2023-12-20T04:55:41;7.95;;;1.30;;
67869;SDS011;54673;52.262;6.830;2023-12-20T04:58:06;8.93;;;1.30;;
67869;SDS011;54673;52.262;6.830;2023-12-20T05:00:32;12.20;;;2.33;;
67869;SDS011;54673;52.262;6.830;2023-12-20T05:02:57;11.93;;;1.50;;
67869;SDS011;54673;52.262;6.830;2023-12-20T05:05:23;14.83;;;1.30;;
67869;SDS011;54673;52.262;6.830;2023-12-20T05:07:48;6.57;;;1.23;;
67869;SDS011;54673;52.262;6.830;2023-12-20T05:10:14;10.15;;;1.35;;
67869;SDS011;54673;52.262;6.830;2023-12-20T05:12:40;7.13;;;1.27;;
67869;SDS011;54673;52.262;6.830;2023-12-20T05:15:06;13.00;;;2.17;;
67869;SDS011;54673;52.262;6.830;2023-12-20T05:17:32;3.97;;;1.13;;
67869;SDS011;54673;52.262;6.830;2023-12-20T05:19:57;13.67;;;1.60;;
67869;SDS011;54673;52.262;6.830;2023-12-20T05:22:23;11.27;;;1.55;;
67869;SDS011;54673;52.262;6.830;2023-12-20T05:24:49;10.63;;;1.73;;
67869;SDS011;54673;52.262;6.830;2023-12-20T05:27:14;13.73;;;1.50;;
67869;SDS011;54673;52.262;6.830;2023-12-20T05:29:40;11.73;;;1.60;;
67869;SDS011;54673;52.262;6.830;2023-12-20T05:32:06;6.90;;;1.23;;
67869;SDS011;54673;52.262;6.830;2023-12-20T05:34:31;6.20;;;1.58;;
67869;SDS011;54673;52.262;6.830;2023-12-20T05:36:57;5.40;;;1.17;;
67869;SDS011;54673;52.262;6.830;2023-12-20T05:39:23;10.88;;;1.30;;
67869;SDS011;54673;52.262;6.830;2023-12-20T05:41:49;4.88;;;0.88;;
67869;SDS011;54673;52.262;6.830;2023-12-20T05:44:14;8.73;;;1.07;;
67869;SDS011;54673;52.262;6.830;2023-12-20T05:46:40;11.10;;;1.77;;
67869;SDS011;54673;52.262;6.830;2023-12-20T05:49:06;11.02;;;1.17;;
67869;SDS011;54673;52.262;6.830;2023-12-20T05:51:31;16.17;;;1.90;;
67869;SDS011;54673;52.262;6.830;2023-12-20T05:53:57;11.52;;;1.77;;
67869;SDS011;54673;52.262;6.830;2023-12-20T05:56:23;11.60;;;1.27;;
67869;SDS011;54673;52.262;6.830;2023-12-20T05:58:49;9.57;;;1.40;;
67869;SDS011;54673;52.262;6.830;2023-12-20T06:01:14;8.83;;;1.03;;
67869;SDS011;54673;52.262;6.830;2023-12-20T06:03:42;16.73;;;1.63;;
67869;SDS011;54673;52.262;6.830;2023-12-20T06:06:08;8.95;;;1.48;;
67869;SDS011;54673;52.262;6.830;2023-12-20T06:08:34;12.73;;;1.55;;
67869;SDS011;54673;52.262;6.830;2023-12-20T06:10:59;14.47;;;1.80;;
67869;SDS011;54673;52.262;6.830;2023-12-20T06:13:25;7.83;;;1.40;;
67869;SDS011;54673;52.262;6.830;2023-12-20T06:15:51;10.52;;;1.33;;
67869;SDS011;54673;52.262;6.830;2023-12-20T06:18:19;9.45;;;1.38;;
67869;SDS011;54673;52.262;6.830;2023-12-20T06:20:44;8.50;;;1.87;;
67869;SDS011;54673;52.262;6.830;2023-12-20T06:23:10;5.40;;;1.93;;
67869;SDS011;54673;52.262;6.830;2023-12-20T06:25:35;13.80;;;1.98;;
67869;SDS011;54673;52.262;6.830;2023-12-20T06:28:01;12.47;;;1.67;;
67869;SDS011;54673;52.262;6.830;2023-12-20T06:30:26;11.23;;;1.40;;
67869;SDS011;54673;52.262;6.830;2023-12-20T06:32:53;13.05;;;1.98;;
67869;SDS011;54673;52.262;6.830;2023-12-20T06:35:19;11.07;;;2.07;;
67869;SDS011;54673;52.262;6.830;2023-12-20T06:37:45;13.52;;;1.75;;
67869;SDS011;54673;52.262;6.830;2023-12-20T06:40:10;8.00;;;1.80;;
67869;SDS011;54673;52.262;6.830;2023-12-20T06:42:36;12.57;;;1.60;;
67869;SDS011;54673;52.262;6.830;2023-12-20T06:45:02;11.43;;;1.83;;
67869;SDS011;54673;52.262;6.830;2023-12-20T06:47:28;9.50;;;1.55;;
67869;SDS011;54673;52.262;6.830;2023-12-20T06:49:54;5.70;;;1.40;;
67869;SDS011;54673;52.262;6.830;2023-12-20T06:52:19;16.37;;;1.70;;
67869;SDS011;54673;52.262;6.830;2023-12-20T06:54:45;7.82;;;1.80;;
67869;SDS011;54673;52.262;6.830;2023-12-20T06:57:10;9.23;;;1.63;;
67869;SDS011;54673;52.262;6.830;2023-12-20T06:59:40;13.43;;;1.50;;
67869;SDS011;54673;52.262;6.830;2023-12-20T07:02:06;9.30;;;1.33;;
67869;SDS011;54673;52.262;6.830;2023-12-20T07:04:31;8.30;;;1.73;;
67869;SDS011;54673;52.262;6.830;2023-12-20T07:06:57;14.97;;;2.10;;
67869;SDS011;54673;52.262;6.830;2023-12-20T07:09:25;15.82;;;2.17;;
67869;SDS011;54673;52.262;6.830;2023-12-20T07:11:51;10.60;;;1.90;;
67869;SDS011;54673;52.262;6.830;2023-12-20T07:14:17;11.65;;;2.40;;
67869;SDS011;54673;52.262;6.830;2023-12-20T07:16:42;10.00;;;1.37;;
67869;SDS011;54673;52.262;6.830;2023-12-20T07:19:08;6.70;;;1.60;;
67869;SDS011;54673;52.262;6.830;2023-12-20T07:21:33;13.73;;;1.50;;
67869;SDS011;54673;52.262;6.830;2023-12-20T07:23:59;11.17;;;1.63;;
67869;SDS011;54673;52.262;6.830;2023-12-20T07:26:24;9.90;;;1.67;;
67869;SDS011;54673;52.262;6.830;2023-12-20T07:28:50;8.00;;;1.43;;
67869;SDS011;54673;52.262;6.830;2023-12-20T07:31:16;13.30;;;1.73;;
67869;SDS011;54673;52.262;6.830;2023-12-20T07:33:41;6.05;;;1.27;;
67869;SDS011;54673;52.262;6.830;2023-12-20T07:36:07;8.97;;;1.90;;
67869;SDS011;54673;52.262;6.830;2023-12-20T07:38:33;8.80;;;1.80;;
67869;SDS011;54673;52.262;6.830;2023-12-20T07:40:58;8.37;;;1.87;;
67869;SDS011;54673;52.262;6.830;2023-12-20T07:43:24;11.82;;;1.80;;
67869;SDS011;54673;52.262;6.830;2023-12-20T07:45:50;7.57;;;1.30;;
67869;SDS011;54673;52.262;6.830;2023-12-20T07:48:15;10.90;;;1.80;;
67869;SDS011;54673;52.262;6.830;2023-12-20T07:50:41;11.50;;;1.40;;
67869;SDS011;54673;52.262;6.830;2023-12-20T07:53:08;11.23;;;1.50;;
67869;SDS011;54673;52.262;6.830;2023-12-20T07:55:33;12.87;;;1.97;;
67869;SDS011;54673;52.262;6.830;2023-12-20T07:57:59;10.98;;;1.65;;
67869;SDS011;54673;52.262;6.830;2023-12-20T08:00:25;4.27;;;1.07;;
67869;SDS011;54673;52.262;6.830;2023-12-20T08:02:51;7.60;;;1.63;;
67869;SDS011;54673;52.262;6.830;2023-12-20T08:05:16;6.13;;;1.20;;
67869;SDS011;54673;52.262;6.830;2023-12-20T08:07:42;14.48;;;1.20;;
67869;SDS011;54673;52.262;6.830;2023-12-20T08:10:08;7.47;;;1.67;;
67869;SDS011;54673;52.262;6.830;2023-12-20T08:12:33;10.40;;;1.55;;
67869;SDS011;54673;52.262;6.830;2023-12-20T08:14:59;12.77;;;1.43;;
67869;SDS011;54673;52.262;6.830;2023-12-20T08:17:25;13.98;;;2.00;;
67869;SDS011;54673;52.262;6.830;2023-12-20T08:19:51;9.07;;;1.70;;
67869;SDS011;54673;52.262;6.830;2023-12-20T08:22:16;10.80;;;1.50;;
67869;SDS011;54673;52.262;6.830;2023-12-20T08:24:42;10.10;;;1.60;;
67869;SDS011;54673;52.262;6.830;2023-12-20T08:27:07;10.60;;;1.93;;
67869;SDS011;54673;52.262;6.830;2023-12-20T08:29:34;9.15;;;1.52;;
67869;SDS011;54673;52.262;6.830;2023-12-20T08:32:00;22.38;;;1.85;;
67869;SDS011;54673;52.262;6.830;2023-12-20T08:34:26;9.57;;;1.63;;
67869;SDS011;54673;52.262;6.830;2023-12-20T08:36:52;8.93;;;1.50;;
67869;SDS011;54673;52.262;6.830;2023-12-20T08:39:17;17.10;;;2.07;;
67869;SDS011;54673;52.262;6.830;2023-12-20T08:41:43;7.67;;;1.43;;
67869;SDS011;54673;52.262;6.830;2023-12-20T08:44:09;4.97;;;1.25;;
67869;SDS011;54673;52.262;6.830;2023-12-20T08:46:35;9.07;;;1.50;;
67869;SDS011;54673;52.262;6.830;2023-12-20T08:49:01;8.50;;;1.73;;
67869;SDS011;54673;52.262;6.830;2023-12-20T08:51:27;9.52;;;1.58;;
67869;SDS011;54673;52.262;6.830;2023-12-20T08:53:53;12.77;;;1.60;;
67869;SDS011;54673;52.262;6.830;2023-12-20T08:56:19;12.48;;;1.65;;
67869;SDS011;54673;52.262;6.830;2023-12-20T08:58:46;17.17;;;1.87;;
67869;SDS011;54673;52.262;6.830;2023-12-20T09:01:12;11.75;;;1.95;;
67869;SDS011;54673;52.262;6.830;2023-12-20T09:03:39;9.98;;;2.25;;
67869;SDS011;54673;52.262;6.830;2023-12-20T09:06:05;9.20;;;1.60;;
67869;SDS011;54673;52.262;6.830;2023-12-20T09:08:31;12.35;;;2.10;;
67869;SDS011;54673;52.262;6.830;2023-12-20T09:10:56;15.27;;;2.00;;
67869;SDS011;54673;52.262;6.830;2023-12-20T09:13:22;11.60;;;1.48;;
67869;SDS011;54673;52.262;6.830;2023-12-20T09:15:54;12.35;;;1.88;;
67869;SDS011;54673;52.262;6.830;2023-12-20T09:18:23;11.77;;;1.50;;
67869;SDS011;54673;52.262;6.830;2023-12-20T09:20:49;11.00;;;2.10;;
67869;SDS011;54673;52.262;6.830;2023-12-20T09:23:15;19.77;;;2.10;;
67869;SDS011;54673;52.262;6.830;2023-12-20T09:25:40;8.27;;;2.15;;
67869;SDS011;54673;52.262;6.830;2023-12-20T09:28:06;9.50;;;2.00;;
67869;SDS011;54673;52.262;6.830;2023-12-20T09:30:32;8.80;;;1.63;;
67869;SDS011;54673;52.262;6.830;2023-12-20T09:32:58;10.17;;;1.90;;
67869;SDS011;54673;52.262;6.830;2023-12-20T09:35:23;14.23;;;1.92;;
67869;SDS011;54673;52.262;6.830;2023-12-20T09:37:51;11.68;;;1.60;;
67869;SDS011;54673;52.262;6.830;2023-12-20T09:40:19;16.52;;;2.15;;
67869;SDS011;54673;52.262;6.830;2023-12-20T09:45:20;11.73;;;1.60;;
67869;SDS011;54673;52.262;6.830;2023-12-20T09:47:52;16.83;;;1.98;;
67869;SDS011;54673;52.262;6.830;2023-12-20T09:50:19;12.03;;;1.60;;
67869;SDS011;54673;52.262;6.830;2023-12-20T09:52:48;9.70;;;2.03;;
67869;SDS011;54673;52.262;6.830;2023-12-20T09:55:20;10.10;;;1.98;;
67869;SDS011;54673;52.262;6.830;2023-12-20T09:57:46;12.87;;;2.20;;
67869;SDS011;54673;52.262;6.830;2023-12-20T10:00:13;12.35;;;2.80;;
67869;SDS011;54673;52.262;6.830;2023-12-20T10:02:42;11.37;;;2.33;;
67869;SDS011;54673;52.262;6.830;2023-12-20T10:05:16;12.95;;;2.33;;
67869;SDS011;54673;52.262;6.830;2023-12-20T10:07:46;12.05;;;2.15;;
67869;SDS011;54673;52.262;6.830;2023-12-20T10:10:13;12.13;;;1.90;;
67869;SDS011;54673;52.262;6.830;2023-12-20T10:12:39;12.77;;;2.22;;
67869;SDS011;54673;52.262;6.830;2023-12-20T10:15:05;8.87;;;1.40;;
67869;SDS011;54673;52.262;6.830;2023-12-20T10:17:31;10.60;;;1.55;;
67869;SDS011;54673;52.262;6.830;2023-12-20T10:19:57;16.17;;;1.67;;
67869;SDS011;54673;52.262;6.830;2023-12-20T10:22:24;12.43;;;1.67;;
67869;SDS011;54673;52.262;6.830;2023-12-20T10:24:49;19.95;;;2.40;;
67869;SDS011;54673;52.262;6.830;2023-12-20T10:27:15;10.63;;;2.10;;
67869;SDS011;54673;52.262;6.830;2023-12-20T10:29:44;17.13;;;1.92;;
67869;SDS011;54673;52.262;6.830;2023-12-20T10:32:23;11.63;;;2.07;;
67869;SDS011;54673;52.262;6.830;2023-12-20T10:34:50;14.20;;;2.08;;
67869;SDS011;54673;52.262;6.830;2023-12-20T10:37:17;7.38;;;1.77;;
67869;SDS011;54673;52.262;6.830;2023-12-20T10:39:43;21.37;;;2.27;;
67869;SDS011;54673;52.262;6.830;2023-12-20T10:42:12;13.70;;;2.22;;
67869;SDS011;54673;52.262;6.830;2023-12-20T10:44:39;10.23;;;1.93;;
67869;SDS011;54673;52.262;6.830;2023-12-20T10:47:05;11.63;;;1.67;;
67869;SDS011;54673;52.262;6.830;2023-12-20T10:49:34;15.13;;;1.83;;
67869;SDS011;54673;52.262;6.830;2023-12-20T10:52:02;12.35;;;2.22;;
67869;SDS011;54673;52.262;6.830;2023-12-20T10:54:30;11.13;;;1.90;;
67869;SDS011;54673;52.262;6.830;2023-12-20T10:56:57;10.90;;;2.30;;
67869;SDS011;54673;52.262;6.830;2023-12-20T10:59:23;14.07;;;2.25;;
67869;SDS011;54673;52.262;6.830;2023-12-20T11:01:50;13.07;;;2.20;;
67869;SDS011;54673;52.262;6.830;2023-12-20T11:04:20;10.65;;;2.22;;
67869;SDS011;54673;52.262;6.830;2023-12-20T11:06:54;20.00;;;2.42;;
67869;SDS011;54673;52.262;6.830;2023-12-20T11:09:35;14.67;;;2.07;;
67869;SDS011;54673;52.262;6.830;2023-12-20T11:12:15;7.35;;;1.80;;
67869;SDS011;54673;52.262;6.830;2023-12-20T11:14:49;9.93;;;1.73;;
67869;SDS011;54673;52.262;6.830;2023-12-20T11:17:17;7.90;;;1.92;;
67869;SDS011;54673;52.262;6.830;2023-12-20T11:20:04;18.48;;;1.88;;
67869;SDS011;54673;52.262;6.830;2023-12-20T11:22:30;7.83;;;1.90;;
67869;SDS011;54673;52.262;6.830;2023-12-20T11:25:09;15.48;;;2.13;;
67869;SDS011;54673;52.262;6.830;2023-12-20T11:27:36;12.48;;;2.00;;
67869;SDS011;54673;52.262;6.830;2023-12-20T11:30:06;9.20;;;2.00;;
67869;SDS011;54673;52.262;6.830;2023-12-20T11:32:34;13.30;;;1.90;;
67869;SDS011;54673;52.262;6.830;2023-12-20T11:35:16;19.73;;;2.43;;
67869;SDS011;54673;52.262;6.830;2023-12-20T11:37:44;12.20;;;2.42;;
67869;SDS011;54673;52.262;6.830;2023-12-20T11:40:16;11.05;;;1.83;;
67869;SDS011;54673;52.262;6.830;2023-12-20T11:42:48;13.82;;;1.98;;
67869;SDS011;54673;52.262;6.830;2023-12-20T11:45:15;7.78;;;2.05;;
67869;SDS011;54673;52.262;6.830;2023-12-20T11:47:47;14.40;;;3.60;;
67869;SDS011;54673;52.262;6.830;2023-12-20T11:50:18;16.35;;;2.53;;
67869;SDS011;54673;52.262;6.830;2023-12-20T11:52:45;10.05;;;2.00;;
67869;SDS011;54673;52.262;6.830;2023-12-20T11:55:11;8.48;;;1.48;;
67869;SDS011;54673;52.262;6.830;2023-12-20T11:57:37;9.43;;;1.80;;
67869;SDS011;54673;52.262;6.830;2023-12-20T12:00:03;9.83;;;1.87;;
67869;SDS011;54673;52.262;6.830;2023-12-20T12:02:31;2.92;;;0.90;;
67869;SDS011;54673;52.262;6.830;2023-12-20T12:04:57;2.72;;;1.10;;
67869;SDS011;54673;52.262;6.830;2023-12-20T12:07:27;7.10;;;0.80;;
67869;SDS011;54673;52.262;6.830;2023-12-20T12:09:52;7.00;;;1.27;;
67869;SDS011;54673;52.262;6.830;2023-12-20T12:12:19;3.33;;;0.70;;
67869;SDS011;54673;52.262;6.830;2023-12-20T12:14:45;9.50;;;1.15;;
67869;SDS011;54673;52.262;6.830;2023-12-20T12:17:11;3.33;;;0.97;;
67869;SDS011;54673;52.262;6.830;2023-12-20T12:19:38;2.88;;;0.82;;
67869;SDS011;54673;52.262;6.830;2023-12-20T12:24:42;2.27;;;0.80;;
67869;SDS011;54673;52.262;6.830;2023-12-20T12:27:08;4.35;;;0.77;;
67869;SDS011;54673;52.262;6.830;2023-12-20T12:29:35;4.83;;;0.80;;
67869;SDS011;54673;52.262;6.830;2023-12-20T12:32:05;5.40;;;0.93;;
67869;SDS011;54673;52.262;6.830;2023-12-20T12:34:34;3.30;;;0.90;;
67869;SDS011;54673;52.262;6.830;2023-12-20T12:37:01;4.53;;;0.70;;
67869;SDS011;54673;52.262;6.830;2023-12-20T12:39:27;6.32;;;0.70;;
67869;SDS011;54673;52.262;6.830;2023-12-20T12:41:54;3.17;;;0.73;;
67869;SDS011;54673;52.262;6.830;2023-12-20T12:44:20;6.65;;;0.70;;
67869;SDS011;54673;52.262;6.830;2023-12-20T12:46:48;3.83;;;1.00;;
67869;SDS011;54673;52.262;6.830;2023-12-20T12:49:19;5.97;;;1.20;;
67869;SDS011;54673;52.262;6.830;2023-12-20T12:51:46;4.32;;;0.70;;
67869;SDS011;54673;52.262;6.830;2023-12-20T12:54:12;3.40;;;0.70;;
67869;SDS011;54673;52.262;6.830;2023-12-20T12:56:38;5.63;;;0.80;;
67869;SDS011;54673;52.262;6.830;2023-12-20T12:59:04;6.47;;;0.90;;
67869;SDS011;54673;52.262;6.830;2023-12-20T13:01:31;7.47;;;0.87;;
67869;SDS011;54673;52.262;6.830;2023-12-20T13:03:56;3.50;;;0.90;;
67869;SDS011;54673;52.262;6.830;2023-12-20T13:06:22;2.47;;;0.77;;
67869;SDS011;54673;52.262;6.830;2023-12-20T13:08:48;5.90;;;0.70;;
67869;SDS011;54673;52.262;6.830;2023-12-20T13:11:14;10.75;;;0.80;;
67869;SDS011;54673;52.262;6.830;2023-12-20T13:13:40;1.93;;;0.63;;
67869;SDS011;54673;52.262;6.830;2023-12-20T13:16:06;5.57;;;0.63;;
67869;SDS011;54673;52.262;6.830;2023-12-20T13:18:32;1.60;;;0.60;;
67869;SDS011;54673;52.262;6.830;2023-12-20T13:20:58;3.55;;;0.80;;
67869;SDS011;54673;52.262;6.830;2023-12-20T13:23:24;6.13;;;0.80;;
67869;SDS011;54673;52.262;6.830;2023-12-20T13:25:49;3.80;;;0.80;;
67869;SDS011;54673;52.262;6.830;2023-12-20T13:28:15;4.50;;;0.60;;
67869;SDS011;54673;52.262;6.830;2023-12-20T13:30:41;3.03;;;0.60;;
67869;SDS011;54673;52.262;6.830;2023-12-20T13:33:07;6.60;;;1.17;;
67869;SDS011;54673;52.262;6.830;2023-12-20T13:35:33;4.18;;;0.70;;
67869;SDS011;54673;52.262;6.830;2023-12-20T13:37:59;5.28;;;0.82;;
67869;SDS011;54673;52.262;6.830;2023-12-20T13:40:25;2.55;;;0.70;;
67869;SDS011;54673;52.262;6.830;2023-12-20T13:42:51;6.32;;;1.00;;
67869;SDS011;54673;52.262;6.830;2023-12-20T13:45:17;2.93;;;0.77;;
67869;SDS011;54673;52.262;6.830;2023-12-20T13:47:43;2.80;;;0.70;;
67869;SDS011;54673;52.262;6.830;2023-12-20T13:50:09;5.30;;;1.00;;
67869;SDS011;54673;52.262;6.830;2023-12-20T13:52:35;3.42;;;1.10;;
67869;SDS011;54673;52.262;6.830;2023-12-20T13:55:01;4.13;;;0.80;;
67869;SDS011;54673;52.262;6.830;2023-12-20T13:57:27;6.23;;;1.20;;
67869;SDS011;54673;52.262;6.830;2023-12-20T13:59:54;4.22;;;1.13;;
67869;SDS011;54673;52.262;6.830;2023-12-20T14:02:22;4.33;;;1.20;;
67869;SDS011;54673;52.262;6.830;2023-12-20T14:04:48;6.47;;;1.17;;
67869;SDS011;54673;52.262;6.830;2023-12-20T14:07:14;3.70;;;0.93;;
67869;SDS011;54673;52.262;6.830;2023-12-20T14:09:40;4.80;;;1.33;;
67869;SDS011;54673;52.262;6.830;2023-12-20T14:12:10;5.50;;;1.02;;
67869;SDS011;54673;52.262;6.830;2023-12-20T14:14:36;3.30;;;0.70;;
67869;SDS011;54673;52.262;6.830;2023-12-20T14:17:02;12.30;;;1.90;;
67869;SDS011;54673;52.262;6.830;2023-12-20T14:19:29;3.72;;;1.08;;
67869;SDS011;54673;52.262;6.830;2023-12-20T14:21:54;8.73;;;1.60;;
67869;SDS011;54673;52.262;6.830;2023-12-20T14:24:20;3.22;;;0.90;;
67869;SDS011;54673;52.262;6.830;2023-12-20T14:26:46;11.60;;;1.97;;
67869;SDS011;54673;52.262;6.830;2023-12-20T14:29:12;8.80;;;1.10;;
67869;SDS011;54673;52.262;6.830;2023-12-20T14:31:38;9.70;;;2.10;;
67869;SDS011;54673;52.262;6.830;2023-12-20T14:34:05;9.23;;;2.03;;
67869;SDS011;54673;52.262;6.830;2023-12-20T14:36:31;9.47;;;1.90;;
67869;SDS011;54673;52.262;6.830;2023-12-20T14:38:57;9.73;;;1.30;;
67869;SDS011;54673;52.262;6.830;2023-12-20T14:41:23;10.70;;;1.70;;
67869;SDS011;54673;52.262;6.830;2023-12-20T14:43:50;10.60;;;1.52;;